createdAt,value
2018-07-28T00:02:20.090Z,100820.53
2018-07-28T00:04:48.261Z,100823.41
2018-07-28T00:07:16.423Z,100813.23
2018-07-28T00:09:44.601Z,100804.06
2018-07-28T00:12:12.740Z,100806.79
2018-07-28T00:14:40.868Z,100799.72
2018-07-28T00:17:09.088Z,100798.88
2018-07-28T00:19:37.194Z,100796.52
2018-07-28T00:22:05.368Z,100794.97
2018-07-28T00:24:33.509Z,100786.14
2018-07-28T00:27:01.634Z,100782.27
2018-07-28T00:29:29.765Z,100775.56
2018-07-28T00:31:57.936Z,100770.02
2018-07-28T00:34:26.111Z,100774.16
2018-07-28T00:36:54.268Z,100780.02
2018-07-28T00:39:22.417Z,100769.78
2018-07-28T00:41:50.533Z,100764.34
2018-07-28T00:44:18.704Z,100767.88
2018-07-28T00:46:46.784Z,100763.66
2018-07-28T00:49:14.877Z,100755.67
2018-07-28T00:51:43.032Z,100749.81
2018-07-28T00:54:11.178Z,100751.10
2018-07-28T00:56:39.312Z,100747.07
2018-07-28T00:59:07.475Z,100742.20
2018-07-28T01:01:35.555Z,100742.34
2018-07-28T01:04:03.696Z,100741.31
2018-07-28T01:06:31.825Z,100729.59
2018-07-28T01:08:59.978Z,100727.24
2018-07-28T01:11:28.120Z,100724.20
2018-07-28T01:13:56.270Z,100722.38
2018-07-28T01:16:24.399Z,100722.38
2018-07-28T01:18:52.519Z,100715.14
2018-07-28T01:21:20.657Z,100716.62
2018-07-28T01:23:48.908Z,100709.82
2018-07-28T01:26:17.068Z,100709.82
2018-07-28T01:28:49.370Z,100711.49
2018-07-28T01:31:17.517Z,100709.03
2018-07-28T01:33:45.739Z,100705.88
2018-07-28T01:36:13.901Z,100702.25
2018-07-28T01:38:42.024Z,100699.58
2018-07-28T01:41:10.156Z,100700.36
2018-07-28T01:43:38.275Z,100700.36
2018-07-28T01:46:06.378Z,100688.80
2018-07-28T01:48:34.487Z,100685.78
2018-07-28T01:51:02.661Z,100680.27
2018-07-28T01:53:30.815Z,100673.77
2018-07-28T01:55:58.980Z,100679.04
2018-07-28T01:58:27.139Z,100675.74
2018-07-28T02:00:55.264Z,100667.08
2018-07-28T02:03:23.430Z,100670.77
2018-07-28T02:05:51.601Z,100664.57
2018-07-28T02:08:19.769Z,100659.26
2018-07-28T02:10:47.902Z,100662.02
2018-07-28T02:13:16.028Z,100656.01
2018-07-28T02:15:44.303Z,100652.37
2018-07-28T02:18:12.428Z,100648.31
2018-07-28T02:20:40.591Z,100643.79
2018-07-28T02:23:09.130Z,100639.31
2018-07-28T02:25:37.276Z,100634.34
2018-07-28T02:28:05.499Z,100633.66
2018-07-28T02:30:33.588Z,100629.33
2018-07-28T02:33:01.713Z,100628.30
2018-07-28T02:35:29.825Z,100631.09
2018-07-28T02:37:57.923Z,100622.00
2018-07-28T02:40:26.044Z,100626.91
2018-07-28T02:42:54.184Z,100623.97
2018-07-28T02:45:22.721Z,100623.97
2018-07-28T02:47:50.856Z,100622.44
2018-07-28T02:50:18.937Z,100614.47
2018-07-28T02:52:47.070Z,100615.95
2018-07-28T02:55:15.223Z,100610.23
2018-07-28T02:57:43.357Z,100619.97
2018-07-28T03:00:11.473Z,100611.81
2018-07-28T03:02:39.592Z,100600.40
2018-07-28T03:05:08.351Z,100603.95
2018-07-28T03:07:36.508Z,100598.17
2018-07-28T03:10:05.050Z,100594.25
2018-07-28T03:12:33.124Z,100596.22
2018-07-28T03:15:02.724Z,100591.84
2018-07-28T03:17:30.877Z,100590.66
2018-07-28T03:19:59.026Z,100589.31
2018-07-28T03:22:27.181Z,100587.84
2018-07-28T03:24:55.320Z,100587.64
2018-07-28T03:27:23.421Z,100589.80
2018-07-28T03:29:51.535Z,100585.63
2018-07-28T03:32:19.654Z,100587.44
2018-07-28T03:34:47.802Z,100585.13
2018-07-28T03:37:15.962Z,100579.42
2018-07-28T03:39:44.085Z,100584.73
2018-07-28T03:42:12.250Z,100582.42
2018-07-28T03:44:40.439Z,100575.30
2018-07-28T03:47:08.612Z,100578.73
2018-07-28T03:49:36.747Z,100576.92
2018-07-28T03:52:04.908Z,100568.17
2018-07-28T03:54:33.022Z,100573.19
2018-07-28T03:57:01.134Z,100576.89
2018-07-28T03:59:29.268Z,100565.37
2018-07-28T04:01:57.459Z,100570.88
2018-07-28T04:04:25.661Z,100569.44
2018-07-28T04:06:53.814Z,100565.46
2018-07-28T04:09:21.937Z,100560.89
2018-07-28T04:11:50.109Z,100557.96
2018-07-28T04:14:18.354Z,100561.25
2018-07-28T04:16:46.440Z,100557.91
2018-07-28T04:19:14.606Z,100552.19
2018-07-28T04:21:42.795Z,100545.41
2018-07-28T04:24:10.978Z,100547.46
2018-07-28T04:26:39.139Z,100536.42
2018-07-28T04:29:07.296Z,100534.30
2018-07-28T04:31:35.464Z,100529.97
2018-07-28T04:34:03.709Z,100534.48
2018-07-28T04:36:31.891Z,100526.70
2018-07-28T04:39:00.102Z,100533.58
2018-07-28T04:41:28.245Z,100529.25
2018-07-28T04:43:56.417Z,100534.26
2018-07-28T04:46:24.601Z,100532.63
2018-07-28T04:48:52.741Z,100539.45
2018-07-28T04:51:20.868Z,100531.11
2018-07-28T04:53:49.030Z,100530.45
2018-07-28T04:56:17.182Z,100527.30
2018-07-28T04:58:45.371Z,100524.56
2018-07-28T05:01:13.529Z,100523.72
2018-07-28T05:03:41.637Z,100528.72
2018-07-28T05:06:09.801Z,100522.56
2018-07-28T05:08:37.975Z,100516.88
2018-07-28T05:11:06.125Z,100521.97
2018-07-28T05:13:34.243Z,100519.55
2018-07-28T05:16:02.412Z,100520.87
2018-07-28T05:18:30.530Z,100521.76
2018-07-28T05:20:58.774Z,100522.66
2018-07-28T05:23:26.908Z,100522.45
2018-07-28T05:25:55.077Z,100509.11
2018-07-28T05:28:23.243Z,100505.69
2018-07-28T05:30:51.434Z,100502.32
2018-07-28T05:33:19.593Z,100503.49
2018-07-28T05:35:47.742Z,100493.80
2018-07-28T05:38:15.906Z,100487.48
2018-07-28T05:40:44.099Z,100489.60
2018-07-28T05:43:12.844Z,100495.70
2018-07-28T05:45:40.988Z,100491.19
2018-07-28T05:48:09.188Z,100490.28
2018-07-28T05:50:37.308Z,100484.33
2018-07-28T05:53:05.695Z,100474.18
2018-07-28T05:55:33.783Z,100470.44
2018-07-28T05:58:01.899Z,100479.33
2018-07-28T06:00:30.024Z,100465.66
2018-07-28T06:02:58.173Z,100467.94
2018-07-28T06:05:26.299Z,100461.52
2018-07-28T06:07:54.460Z,100458.33
2018-07-28T06:10:22.599Z,100464.73
2018-07-28T06:12:50.759Z,100471.57
2018-07-28T06:15:18.904Z,100477.96
2018-07-28T06:17:47.076Z,100467.41
2018-07-28T06:20:15.268Z,100466.31
2018-07-28T06:22:43.373Z,100466.11
2018-07-28T06:25:11.534Z,100458.74
2018-07-28T06:27:39.657Z,100467.72
2018-07-28T06:30:09.069Z,100474.61
2018-07-28T06:32:37.300Z,100473.20
2018-07-28T06:35:05.435Z,100464.59
2018-07-28T06:37:33.534Z,100465.23
2018-07-28T06:40:01.695Z,100458.04
2018-07-28T06:42:29.909Z,100457.69
2018-07-28T06:44:58.064Z,100460.00
2018-07-28T06:47:26.229Z,100456.44
2018-07-28T06:49:54.383Z,100462.70
2018-07-28T06:52:22.569Z,100458.02
2018-07-28T06:54:50.724Z,100456.97
2018-07-28T06:57:18.852Z,100454.36
2018-07-28T06:59:46.971Z,100454.20
2018-07-28T07:02:15.121Z,100456.83
2018-07-28T07:04:43.283Z,100457.16
2018-07-28T07:07:11.914Z,100456.36
2018-07-28T07:09:40.012Z,100450.78
2018-07-28T07:12:08.105Z,100451.53
2018-07-28T07:14:36.317Z,100451.27
2018-07-28T07:17:04.504Z,100453.57
2018-07-28T07:19:32.653Z,100455.51
2018-07-28T07:22:00.788Z,100460.52
2018-07-28T07:24:28.887Z,100452.47
2018-07-28T07:26:56.980Z,100464.75
2018-07-28T07:29:25.109Z,100451.13
2018-07-28T07:31:53.252Z,100451.66
2018-07-28T07:34:21.355Z,100448.98
2018-07-28T07:36:49.468Z,100450.07
2018-07-28T07:39:18.394Z,100451.27
2018-07-28T07:41:46.548Z,100454.00
2018-07-28T07:44:14.649Z,100447.10
2018-07-28T07:46:42.723Z,100440.02
2018-07-28T07:49:10.857Z,100437.98
2018-07-28T07:51:38.932Z,100433.95
2018-07-28T07:54:07.065Z,100418.59
2018-07-28T07:56:35.147Z,100414.54
2018-07-28T07:59:03.658Z,100416.09
2018-07-28T08:01:31.740Z,100424.11
2018-07-28T08:03:59.853Z,100413.55
2018-07-28T08:06:28.000Z,100411.31
2018-07-28T08:08:56.121Z,100403.97
2018-07-28T08:11:24.375Z,100401.05
2018-07-28T08:13:52.489Z,100402.98
2018-07-28T08:16:20.628Z,100396.84
2018-07-28T08:18:48.812Z,100404.32
2018-07-28T08:21:16.957Z,100396.67
2018-07-28T08:23:45.086Z,100404.32
2018-07-28T08:26:13.256Z,100408.44
2018-07-28T08:28:41.381Z,100397.72
2018-07-28T08:31:09.573Z,100393.98
2018-07-28T08:33:37.696Z,100388.88
2018-07-28T08:36:05.900Z,100385.54
2018-07-28T08:38:34.077Z,100382.45
2018-07-28T08:41:02.256Z,100379.51
2018-07-28T08:43:30.335Z,100377.78
2018-07-28T08:45:58.434Z,100372.72
2018-07-28T08:48:26.571Z,100369.32
2018-07-28T08:50:54.667Z,100376.55
2018-07-28T08:53:22.788Z,100378.77
2018-07-28T08:55:50.909Z,100378.77
2018-07-28T08:58:19.022Z,100383.12
2018-07-28T09:00:47.138Z,100388.22
2018-07-28T09:03:15.239Z,100391.40
2018-07-28T09:05:43.361Z,100385.63
2018-07-28T09:08:11.482Z,100390.17
2018-07-28T09:10:39.721Z,100390.16
2018-07-28T09:13:08.111Z,100394.08
2018-07-28T09:15:36.209Z,100391.61
2018-07-28T09:18:04.378Z,100395.87
2018-07-28T09:20:32.459Z,100388.22
2018-07-28T09:23:00.627Z,100393.25
2018-07-28T09:25:28.778Z,100387.84
2018-07-28T09:27:56.899Z,100401.33
2018-07-28T09:30:24.986Z,100386.09
2018-07-28T09:32:53.053Z,100397.44
2018-07-28T09:35:21.160Z,100379.30
2018-07-28T09:37:49.380Z,100360.84
2018-07-28T09:40:17.408Z,100360.16
2018-07-28T09:42:45.512Z,100341.62
2018-07-28T09:45:13.678Z,100337.08
2018-07-28T09:47:41.850Z,100354.02
2018-07-28T09:50:09.932Z,100350.45
2018-07-28T09:52:38.056Z,100353.17
2018-07-28T09:55:06.188Z,100351.08
2018-07-28T09:57:34.298Z,100354.22
2018-07-28T10:00:02.346Z,100335.98
2018-07-28T10:02:30.471Z,100328.98
2018-07-28T10:04:58.586Z,100327.98
2018-07-28T10:07:26.688Z,100337.30
2018-07-28T10:09:55.122Z,100331.40
2018-07-28T10:12:23.227Z,100321.97
2018-07-28T10:14:53.620Z,100321.15
2018-07-28T10:17:21.849Z,100319.64
2018-07-28T10:19:50.009Z,100317.39
2018-07-28T10:22:18.162Z,100315.77
2018-07-28T10:24:46.372Z,100320.38
2018-07-28T10:27:15.304Z,100318.75
2018-07-28T10:29:43.574Z,100316.70
2018-07-28T10:32:11.771Z,100313.06
2018-07-28T10:34:39.914Z,100308.80
2018-07-28T10:37:08.147Z,100295.42
2018-07-28T10:39:36.286Z,100283.61
2018-07-28T10:42:04.446Z,100291.73
2018-07-28T10:44:32.649Z,100291.28
2018-07-28T10:47:00.774Z,100290.36
2018-07-28T10:49:28.917Z,100278.72
2018-07-28T10:51:57.119Z,100280.55
2018-07-28T10:54:25.246Z,100280.87
2018-07-28T10:56:53.372Z,100277.91
2018-07-28T10:59:21.488Z,100275.39
2018-07-28T11:01:49.596Z,100263.59
2018-07-28T11:04:17.734Z,100271.37
2018-07-28T11:06:45.853Z,100275.05
2018-07-28T11:09:13.985Z,100263.55
2018-07-28T11:11:42.112Z,100258.58
2018-07-28T11:14:10.302Z,100245.34
2018-07-28T11:16:38.445Z,100267.41
2018-07-28T11:19:06.663Z,100262.34
2018-07-28T11:21:34.692Z,100255.19
2018-07-28T11:24:03.095Z,100258.15
2018-07-28T11:26:31.248Z,100253.33
2018-07-28T11:28:59.324Z,100258.64
2018-07-28T11:31:38.916Z,100249.80
2018-07-28T11:34:56.086Z,100248.34
2018-07-28T11:37:35.519Z,100250.44
2018-07-28T11:40:15.117Z,100245.88
2018-07-28T11:42:54.635Z,100239.91
2018-07-28T11:45:22.800Z,100243.38
2018-07-28T11:47:50.928Z,100241.93
2018-07-28T11:50:19.095Z,100226.53
2018-07-28T11:52:47.200Z,100227.22
2018-07-28T11:55:15.377Z,100218.19
2018-07-28T11:57:43.463Z,100215.28
2018-07-28T12:00:11.672Z,100219.08
2018-07-28T12:02:40.259Z,100223.02
2018-07-28T12:05:08.751Z,100220.77
2018-07-28T12:07:36.867Z,100209.84
2018-07-28T12:10:06.835Z,100207.59
2018-07-28T12:12:34.969Z,100202.56
2018-07-28T12:15:03.143Z,100208.43
2018-07-28T12:17:31.285Z,100202.20
2018-07-28T12:19:59.418Z,100198.41
2018-07-28T12:22:27.538Z,100199.63
2018-07-28T12:24:55.628Z,100193.20
2018-07-28T12:27:23.727Z,100181.98
2018-07-28T12:29:51.855Z,100173.65
2018-07-28T12:32:20.081Z,100177.36
2018-07-28T12:34:48.256Z,100176.76
2018-07-28T12:37:16.361Z,100162.75
2018-07-28T12:39:44.513Z,100159.19
2018-07-28T12:42:12.644Z,100163.58
2018-07-28T12:44:40.810Z,100155.56
2018-07-28T12:47:08.936Z,100158.87
2018-07-28T12:49:37.176Z,100152.67
2018-07-28T12:52:05.244Z,100150.22
2018-07-28T12:54:33.337Z,100140.19
2018-07-28T12:57:01.482Z,100140.16
2018-07-28T12:59:29.652Z,100141.05
2018-07-28T13:01:57.774Z,100130.08
2018-07-28T13:04:26.006Z,100138.52
2018-07-28T13:06:54.151Z,100136.11
2018-07-28T13:09:22.281Z,100150.97
2018-07-28T13:11:50.412Z,100147.16
2018-07-28T13:14:18.573Z,100139.03
2018-07-28T13:16:46.903Z,100134.08
2018-07-28T13:19:15.039Z,100138.14
2018-07-28T13:21:43.192Z,100133.18
2018-07-28T13:24:11.301Z,100136.11
2018-07-28T13:26:39.445Z,100141.04
2018-07-28T13:29:07.591Z,100138.41
2018-07-28T13:31:35.725Z,100136.77
2018-07-28T13:34:03.802Z,100127.62
2018-07-28T13:36:31.903Z,100136.05
2018-07-28T13:39:00.076Z,100136.70
2018-07-28T13:41:28.208Z,100143.47
2018-07-28T13:43:56.392Z,100144.34
2018-07-28T13:46:24.566Z,100144.86
2018-07-28T13:48:52.690Z,100155.39
2018-07-28T13:51:20.807Z,100163.44
2018-07-28T13:53:48.980Z,100167.23
2018-07-28T13:56:17.154Z,100178.80
2018-07-28T13:58:45.300Z,100242.80
2018-07-28T14:01:13.436Z,100217.08
2018-07-28T14:03:41.602Z,100234.70
2018-07-28T14:06:10.185Z,100250.44
2018-07-28T14:08:38.207Z,100274.50
2018-07-28T14:11:06.529Z,100270.30
2018-07-28T14:13:34.636Z,100265.48
2018-07-28T14:16:02.749Z,100258.08
2018-07-28T14:18:31.130Z,100258.73
2018-07-28T14:20:59.149Z,100264.09
2018-07-28T14:23:27.417Z,100267.52
2018-07-28T14:25:55.543Z,100284.03
2018-07-28T14:28:23.689Z,100312.70
2018-07-28T14:30:52.195Z,100317.95
2018-07-28T14:33:20.351Z,100327.17
2018-07-28T14:35:48.566Z,100317.91
2018-07-28T14:38:16.761Z,100321.74
2018-07-28T14:40:44.894Z,100326.64
2018-07-28T14:43:14.244Z,100329.70
2018-07-28T14:45:51.706Z,100346.72
2018-07-28T14:48:19.968Z,100346.67
2018-07-28T14:50:48.182Z,100362.64
2018-07-28T14:53:16.347Z,100380.95
2018-07-28T14:55:44.527Z,100371.25
2018-07-28T14:58:12.669Z,100373.81
2018-07-28T15:00:40.836Z,100380.66
2018-07-28T15:03:09.751Z,100382.38
2018-07-28T15:05:38.152Z,100372.23
2018-07-28T15:08:06.348Z,100376.71
2018-07-28T15:10:34.543Z,100368.72
2018-07-28T15:13:02.720Z,100361.22
2018-07-28T15:15:30.926Z,100355.55
2018-07-28T15:17:59.139Z,100350.37
2018-07-28T15:20:27.377Z,100354.52
2018-07-28T15:22:55.600Z,100352.83
2018-07-28T15:25:23.895Z,100359.13
2018-07-28T15:27:52.192Z,100356.95
2018-07-28T15:30:20.486Z,100378.12
2018-07-28T15:32:48.786Z,100381.12
2018-07-28T15:35:17.095Z,100376.63
2018-07-28T15:37:45.936Z,100386.75
2018-07-28T15:40:14.109Z,100382.94
2018-07-28T15:42:42.280Z,100371.34
2018-07-28T15:45:10.427Z,100367.16
2018-07-28T15:47:38.685Z,100383.40
2018-07-28T15:50:06.965Z,100397.94
2018-07-28T15:52:35.191Z,100416.27
2018-07-28T15:55:03.377Z,100400.99
2018-07-28T15:57:31.463Z,100395.31
2018-07-28T15:59:59.655Z,100389.48
2018-07-28T16:02:27.823Z,100386.02
2018-07-28T16:04:56.172Z,100400.70
2018-07-28T16:07:24.293Z,100394.02
2018-07-28T16:09:52.434Z,100396.67
2018-07-28T16:12:20.629Z,100396.87
2018-07-28T16:14:48.869Z,100412.45
2018-07-28T16:17:16.978Z,100413.65
2018-07-28T16:19:45.186Z,100405.08
2018-07-28T16:22:13.346Z,100413.11
2018-07-28T16:24:41.530Z,100421.97
2018-07-28T16:27:09.729Z,100417.17
2018-07-28T16:29:37.964Z,100423.98
2018-07-28T16:32:06.206Z,100414.52
2018-07-28T16:34:34.553Z,100420.86
2018-07-28T16:37:02.761Z,100428.02
2018-07-28T16:39:30.996Z,100433.52
2018-07-28T16:41:59.295Z,100444.00
2018-07-28T16:44:28.330Z,100448.35
2018-07-28T16:46:56.487Z,100453.50
2018-07-28T16:49:24.751Z,100457.31
2018-07-28T16:51:52.950Z,100462.13
2018-07-28T16:54:21.166Z,100465.11
2018-07-28T16:56:49.359Z,100467.77
2018-07-28T16:59:17.619Z,100475.56
2018-07-28T17:01:45.824Z,100478.67
2018-07-28T17:04:14.013Z,100479.42
2018-07-28T17:06:42.230Z,100484.16
2018-07-28T17:09:12.189Z,100479.49
2018-07-28T17:11:40.874Z,100489.81
2018-07-28T17:14:09.296Z,100487.80
2018-07-28T17:16:37.535Z,100494.25
2018-07-28T17:19:05.887Z,100499.39
2018-07-28T17:21:34.115Z,100502.94
2018-07-28T17:24:02.608Z,100501.31
2018-07-28T17:26:30.824Z,100505.88
2018-07-28T17:28:59.257Z,100504.62
2018-07-28T17:31:27.432Z,100510.27
2018-07-28T17:33:55.780Z,100519.98
2018-07-28T17:36:23.934Z,100525.58
2018-07-28T17:38:52.200Z,100527.98
2018-07-28T17:41:20.372Z,100536.23
2018-07-28T17:43:48.543Z,100532.13
2018-07-28T17:46:16.710Z,100527.66
2018-07-28T17:48:44.792Z,100541.36
2018-07-28T17:51:13.095Z,100551.27
2018-07-28T17:53:41.251Z,100563.73
2018-07-28T17:56:09.506Z,100570.38
2018-07-28T17:58:37.803Z,100564.87
2018-07-28T18:01:06.149Z,100564.34
2018-07-28T18:03:34.368Z,100568.33
2018-07-28T18:06:02.539Z,100581.84
2018-07-28T18:08:30.673Z,100581.58
2018-07-28T18:10:58.841Z,100584.16
2018-07-28T18:13:27.150Z,100590.45
2018-07-28T18:15:55.199Z,100604.23
2018-07-28T18:18:23.434Z,100620.48
2018-07-28T18:20:51.645Z,100633.46
2018-07-28T18:23:19.814Z,100636.52
2018-07-28T18:25:48.025Z,100631.16
2018-07-28T18:28:16.169Z,100629.23
2018-07-28T18:30:44.371Z,100641.25
2018-07-28T18:33:12.447Z,100648.39
2018-07-28T18:35:40.611Z,100650.73
2018-07-28T18:38:08.771Z,100655.61
2018-07-28T18:40:36.930Z,100667.00
2018-07-28T18:43:06.043Z,100670.24
2018-07-28T18:45:34.191Z,100677.19
2018-07-28T18:48:02.332Z,100664.83
2018-07-28T18:50:30.495Z,100651.55
2018-07-28T18:52:58.625Z,100647.25
2018-07-28T18:55:26.775Z,100649.61
2018-07-28T18:57:54.924Z,100651.73
2018-07-28T19:00:23.072Z,100639.28
2018-07-28T19:02:51.188Z,100643.80
2018-07-28T19:05:19.329Z,100646.07
2018-07-28T19:07:47.476Z,100645.80
2018-07-28T19:10:15.615Z,100631.49
2018-07-28T19:12:49.136Z,100619.14
2018-07-28T19:15:17.251Z,100614.30
2018-07-28T19:17:50.648Z,100626.81
2018-07-28T19:20:18.772Z,100615.70
2018-07-28T19:22:52.236Z,100633.16
2018-07-28T19:25:20.381Z,100641.42
2018-07-28T19:27:53.797Z,100645.11
2018-07-28T19:30:21.960Z,100659.46
2018-07-28T19:32:50.056Z,100666.94
2018-07-28T19:35:18.176Z,100656.19
2018-07-28T19:37:46.327Z,100650.18
2018-07-28T19:40:14.472Z,100641.23
2018-07-28T19:42:48.081Z,100643.14
2018-07-28T19:45:16.166Z,100655.29
2018-07-28T19:47:44.277Z,100648.80
2018-07-28T19:50:12.387Z,100638.47
2018-07-28T19:52:40.553Z,100652.00
2018-07-28T19:55:08.730Z,100659.33
2018-07-28T19:57:36.884Z,100663.52
2018-07-28T20:00:05.480Z,100669.61
2018-07-28T20:02:33.609Z,100679.80
2018-07-28T20:05:01.722Z,100681.44
2018-07-28T20:07:29.980Z,100680.45
2018-07-28T20:09:58.051Z,100712.72
2018-07-28T20:12:26.172Z,100734.17
2018-07-28T20:14:54.376Z,100731.25
2018-07-28T20:17:22.583Z,100744.39
2018-07-28T20:19:50.816Z,100739.42
2018-07-28T20:22:18.907Z,100754.23
2018-07-28T20:24:47.151Z,100750.25
2018-07-28T20:27:15.423Z,100751.72
2018-07-28T20:29:43.566Z,100757.59
2018-07-28T20:32:11.823Z,100755.42
2018-07-28T20:34:39.910Z,100745.08
2018-07-28T20:37:08.047Z,100735.52
2018-07-28T20:39:36.169Z,100740.27
2018-07-28T20:42:04.694Z,100739.22
2018-07-28T20:44:32.912Z,100743.84
2018-07-28T20:47:01.121Z,100756.77
2018-07-28T20:49:29.316Z,100764.24
2018-07-28T20:51:57.486Z,100763.09
2018-07-28T20:54:25.644Z,100778.22
2018-07-28T20:56:53.811Z,100788.59
2018-07-28T20:59:21.960Z,100796.08
2018-07-28T21:01:50.062Z,100792.72
2018-07-28T21:04:18.206Z,100816.69
2018-07-28T21:06:46.368Z,100824.69
2018-07-28T21:09:14.549Z,100829.23
2018-07-28T21:11:42.657Z,100831.59
2018-07-28T21:14:10.798Z,100830.84
2018-07-28T21:16:38.947Z,100833.07
2018-07-28T21:19:07.060Z,100828.67
2018-07-28T21:21:35.153Z,100832.41
2018-07-28T21:24:03.345Z,100829.83
2018-07-28T21:26:31.453Z,100828.19
2018-07-28T21:28:59.617Z,100827.76
2018-07-28T21:31:27.743Z,100826.92
2018-07-28T21:33:55.923Z,100824.70
2018-07-28T21:36:24.058Z,100826.44
2018-07-28T21:38:52.254Z,100841.30
2018-07-28T21:41:20.433Z,100853.24
2018-07-28T21:43:48.681Z,100862.70
2018-07-28T21:46:16.851Z,100860.10
2018-07-28T21:48:45.032Z,100861.70
2018-07-28T21:51:13.204Z,100874.97
2018-07-28T21:53:41.361Z,100875.66
2018-07-28T21:56:09.540Z,100882.59
2018-07-28T21:58:37.713Z,100881.61
2018-07-28T22:01:11.380Z,100882.80
2018-07-28T22:03:39.561Z,100885.10
2018-07-28T22:06:07.746Z,100901.98
2018-07-28T22:08:35.876Z,100902.07
2018-07-28T22:11:04.055Z,100892.13
2018-07-28T22:13:32.190Z,100891.70
2018-07-28T22:16:00.331Z,100897.00
2018-07-28T22:18:28.536Z,100899.11
2018-07-28T22:20:56.671Z,100901.24
2018-07-28T22:23:24.903Z,100904.31
2018-07-28T22:25:53.039Z,100903.11
2018-07-28T22:28:21.184Z,100906.60
2018-07-28T22:30:49.294Z,100908.22
2018-07-28T22:33:17.434Z,100919.88
2018-07-28T22:35:45.545Z,100934.81
2018-07-28T22:38:13.643Z,100934.33
2018-07-28T22:40:41.813Z,100940.98
2018-07-28T22:43:10.179Z,100942.05
2018-07-28T22:45:38.291Z,100951.16
2018-07-28T22:48:06.426Z,100957.56
2018-07-28T22:50:34.514Z,100964.06
2018-07-28T22:53:02.657Z,100968.00
2018-07-28T22:55:30.790Z,100973.40
2018-07-28T22:57:58.914Z,100974.78
2018-07-28T23:00:27.028Z,100981.67
2018-07-28T23:02:55.212Z,100982.16
2018-07-28T23:05:23.394Z,100980.58
2018-07-28T23:07:51.650Z,100977.98
2018-07-28T23:10:19.805Z,100960.47
2018-07-28T23:12:48.040Z,100956.34
2018-07-28T23:15:16.167Z,100955.08
2018-07-28T23:17:44.510Z,100955.52
2018-07-28T23:20:12.645Z,100956.34
2018-07-28T23:22:40.792Z,100955.75
2018-07-28T23:25:09.090Z,100958.20
2018-07-28T23:27:37.207Z,100953.98
2018-07-28T23:30:08.026Z,100963.80
2018-07-28T23:32:36.121Z,100963.44
2018-07-28T23:35:04.273Z,100961.86
2018-07-28T23:37:32.364Z,100959.02
2018-07-28T23:40:00.468Z,100969.45
2018-07-28T23:42:28.609Z,100960.17
2018-07-28T23:44:56.707Z,100961.39
2018-07-28T23:47:24.830Z,100952.98
2018-07-28T23:49:52.985Z,100958.09
2018-07-28T23:52:21.124Z,100953.41
2018-07-28T23:54:49.235Z,100947.42
2018-07-28T23:57:17.336Z,100948.09
2018-07-28T23:59:45.462Z,100954.00
